sensor_id;sensor_type;location;lat;lon;timestamp;temperature;humidity
30280;DHT22;17097;50.916;5.344;2022-11-20T00:01:51;6.30;99.90
30280;DHT22;17097;50.916;5.344;2022-11-20T00:04:17;6.30;99.90
30280;DHT22;17097;50.916;5.344;2022-11-20T00:06:43;6.20;99.90
30280;DHT22;17097;50.916;5.344;2022-11-20T00:09:09;6.20;99.90
30280;DHT22;17097;50.916;5.344;2022-11-20T00:11:35;6.30;99.90
30280;DHT22;17097;50.916;5.344;2022-11-20T00:14:01;6.30;99.90
30280;DHT22;17097;50.916;5.344;2022-11-20T00:16:29;6.30;99.90
30280;DHT22;17097;50.916;5.344;2022-11-20T00:18:56;6.20;99.90
30280;DHT22;17097;50.916;5.344;2022-11-20T00:21:24;6.20;99.90
30280;DHT22;17097;50.916;5.344;2022-11-20T00:23:52;6.20;99.90
30280;DHT22;17097;50.916;5.344;2022-11-20T00:26:20;6.10;99.90
30280;DHT22;17097;50.916;5.344;2022-11-20T00:28:50;6.20;99.90
30280;DHT22;17097;50.916;5.344;2022-11-20T00:31:17;6.20;99.90
30280;DHT22;17097;50.916;5.344;2022-11-20T00:33:44;6.20;99.90
30280;DHT22;17097;50.916;5.344;2022-11-20T00:36:20;6.30;99.90
30280;DHT22;17097;50.916;5.344;2022-11-20T00:38:46;6.40;99.90
30280;DHT22;17097;50.916;5.344;2022-11-20T00:41:16;6.50;99.90
30280;DHT22;17097;50.916;5.344;2022-11-20T00:43:42;6.40;99.90
30280;DHT22;17097;50.916;5.344;2022-11-20T00:46:16;6.40;99.90
30280;DHT22;17097;50.916;5.344;2022-11-20T00:48:43;6.40;99.90
30280;DHT22;17097;50.916;5.344;2022-11-20T00:51:15;6.40;99.90
30280;DHT22;17097;50.916;5.344;2022-11-20T00:53:42;6.30;99.90
30280;DHT22;17097;50.916;5.344;2022-11-20T00:56:14;6.20;99.90
30280;DHT22;17097;50.916;5.344;2022-11-20T00:58:42;6.10;99.90
30280;DHT22;17097;50.916;5.344;2022-11-20T01:01:10;6.10;99.90
30280;DHT22;17097;50.916;5.344;2022-11-20T01:03:41;6.10;99.90
30280;DHT22;17097;50.916;5.344;2022-11-20T01:08:56;6.00;99.90
30280;DHT22;17097;50.916;5.344;2022-11-20T01:11:43;6.00;99.90
30280;DHT22;17097;50.916;5.344;2022-11-20T01:14:13;5.90;99.90
30280;DHT22;17097;50.916;5.344;2022-11-20T01:16:41;6.00;99.90
30280;DHT22;17097;50.916;5.344;2022-11-20T01:19:10;6.00;99.90
30280;DHT22;17097;50.916;5.344;2022-11-20T01:21:39;6.00;99.90
30280;DHT22;17097;50.916;5.344;2022-11-20T01:24:06;5.90;99.90
30280;DHT22;17097;50.916;5.344;2022-11-20T01:26:34;5.90;99.90
30280;DHT22;17097;50.916;5.344;2022-11-20T01:29:03;5.90;99.90
30280;DHT22;17097;50.916;5.344;2022-11-20T01:31:34;6.10;99.90
30280;DHT22;17097;50.916;5.344;2022-11-20T01:34:11;6.10;99.90
30280;DHT22;17097;50.916;5.344;2022-11-20T01:36:38;6.00;99.90
30280;DHT22;17097;50.916;5.344;2022-11-20T01:39:10;6.00;99.90
30280;DHT22;17097;50.916;5.344;2022-11-20T01:41:35;6.00;99.90
30280;DHT22;17097;50.916;5.344;2022-11-20T01:44:22;6.10;99.90
30280;DHT22;17097;50.916;5.344;2022-11-20T01:47:09;6.10;99.90
30280;DHT22;17097;50.916;5.344;2022-11-20T01:49:42;6.10;99.90
30280;DHT22;17097;50.916;5.344;2022-11-20T01:55:05;6.00;99.90
30280;DHT22;17097;50.916;5.344;2022-11-20T01:57:35;5.90;99.90
30280;DHT22;17097;50.916;5.344;2022-11-20T02:00:09;6.00;99.90
30280;DHT22;17097;50.916;5.344;2022-11-20T02:02:37;5.90;99.90
30280;DHT22;17097;50.916;5.344;2022-11-20T02:05:28;5.80;99.90
30280;DHT22;17097;50.916;5.344;2022-11-20T02:07:57;5.80;99.90
30280;DHT22;17097;50.916;5.344;2022-11-20T02:10:26;5.80;99.90
30280;DHT22;17097;50.916;5.344;2022-11-20T02:12:53;5.80;99.90
30280;DHT22;17097;50.916;5.344;2022-11-20T02:15:37;5.70;99.90
30280;DHT22;17097;50.916;5.344;2022-11-20T02:18:04;5.80;99.90
30280;DHT22;17097;50.916;5.344;2022-11-20T02:20:31;5.70;99.90
30280;DHT22;17097;50.916;5.344;2022-11-20T02:23:05;5.70;99.90
30280;DHT22;17097;50.916;5.344;2022-11-20T02:25:34;5.70;99.90
30280;DHT22;17097;50.916;5.344;2022-11-20T02:28:04;5.70;99.90
30280;DHT22;17097;50.916;5.344;2022-11-20T02:30:33;5.70;99.90
30280;DHT22;17097;50.916;5.344;2022-11-20T02:32:58;5.80;99.90
30280;DHT22;17097;50.916;5.344;2022-11-20T02:37:53;5.70;99.90
30280;DHT22;17097;50.916;5.344;2022-11-20T02:40:20;5.70;99.90
30280;DHT22;17097;50.916;5.344;2022-11-20T02:42:46;5.70;99.90
30280;DHT22;17097;50.916;5.344;2022-11-20T02:45:14;5.60;99.90
30280;DHT22;17097;50.916;5.344;2022-11-20T02:47:39;5.60;99.90
30280;DHT22;17097;50.916;5.344;2022-11-20T02:50:06;5.70;99.90
30280;DHT22;17097;50.916;5.344;2022-11-20T02:52:32;5.70;99.90
30280;DHT22;17097;50.916;5.344;2022-11-20T02:54:58;5.70;99.90
30280;DHT22;17097;50.916;5.344;2022-11-20T02:57:26;5.80;99.90
30280;DHT22;17097;50.916;5.344;2022-11-20T02:59:52;5.70;99.90
30280;DHT22;17097;50.916;5.344;2022-11-20T03:02:18;5.80;99.90
30280;DHT22;17097;50.916;5.344;2022-11-20T03:04:44;5.80;99.90
30280;DHT22;17097;50.916;5.344;2022-11-20T03:07:10;5.80;99.90
30280;DHT22;17097;50.916;5.344;2022-11-20T03:09:38;5.80;99.90
30280;DHT22;17097;50.916;5.344;2022-11-20T03:12:03;5.70;99.90
30280;DHT22;17097;50.916;5.344;2022-11-20T03:14:30;5.70;99.90
30280;DHT22;17097;50.916;5.344;2022-11-20T03:16:56;5.70;99.90
30280;DHT22;17097;50.916;5.344;2022-11-20T03:19:22;5.80;99.90
30280;DHT22;17097;50.916;5.344;2022-11-20T03:21:48;5.80;99.90
30280;DHT22;17097;50.916;5.344;2022-11-20T03:24:14;5.70;99.90
30280;DHT22;17097;50.916;5.344;2022-11-20T03:26:40;5.80;99.90
30280;DHT22;17097;50.916;5.344;2022-11-20T03:29:06;5.80;99.90
30280;DHT22;17097;50.916;5.344;2022-11-20T03:31:38;5.70;99.90
30280;DHT22;17097;50.916;5.344;2022-11-20T03:34:06;5.60;99.90
30280;DHT22;17097;50.916;5.344;2022-11-20T03:36:33;5.60;99.90
30280;DHT22;17097;50.916;5.344;2022-11-20T03:39:01;5.80;99.90
30280;DHT22;17097;50.916;5.344;2022-11-20T03:41:31;5.80;99.90
30280;DHT22;17097;50.916;5.344;2022-11-20T03:44:01;5.80;99.90
30280;DHT22;17097;50.916;5.344;2022-11-20T03:46:28;5.70;99.90
30280;DHT22;17097;50.916;5.344;2022-11-20T03:48:54;5.70;99.90
30280;DHT22;17097;50.916;5.344;2022-11-20T03:53:49;5.80;99.90
30280;DHT22;17097;50.916;5.344;2022-11-20T03:56:17;5.70;99.90
30280;DHT22;17097;50.916;5.344;2022-11-20T03:58:43;5.80;99.90
30280;DHT22;17097;50.916;5.344;2022-11-20T04:01:12;5.80;99.90
30280;DHT22;17097;50.916;5.344;2022-11-20T04:03:40;5.80;99.90
30280;DHT22;17097;50.916;5.344;2022-11-20T04:06:19;5.80;99.90
30280;DHT22;17097;50.916;5.344;2022-11-20T04:08:45;5.80;99.90
30280;DHT22;17097;50.916;5.344;2022-11-20T04:11:17;5.70;99.90
30280;DHT22;17097;50.916;5.344;2022-11-20T04:13:47;5.50;99.90
30280;DHT22;17097;50.916;5.344;2022-11-20T04:16:13;5.60;99.90
30280;DHT22;17097;50.916;5.344;2022-11-20T04:18:39;5.70;99.90
30280;DHT22;17097;50.916;5.344;2022-11-20T04:21:06;5.90;99.90
30280;DHT22;17097;50.916;5.344;2022-11-20T04:23:32;5.80;99.90
30280;DHT22;17097;50.916;5.344;2022-11-20T04:26:09;5.80;99.90
30280;DHT22;17097;50.916;5.344;2022-11-20T04:28:36;5.70;99.90
30280;DHT22;17097;50.916;5.344;2022-11-20T04:31:15;5.70;99.90
30280;DHT22;17097;50.916;5.344;2022-11-20T04:33:42;5.80;99.90
30280;DHT22;17097;50.916;5.344;2022-11-20T04:38:38;5.60;99.90
30280;DHT22;17097;50.916;5.344;2022-11-20T04:41:09;5.60;99.90
30280;DHT22;17097;50.916;5.344;2022-11-20T04:43:36;5.50;99.90
30280;DHT22;17097;50.916;5.344;2022-11-20T04:46:04;5.60;99.90
30280;DHT22;17097;50.916;5.344;2022-11-20T04:48:30;5.60;99.90
30280;DHT22;17097;50.916;5.344;2022-11-20T04:51:02;5.70;99.90
30280;DHT22;17097;50.916;5.344;2022-11-20T04:53:30;5.70;99.90
30280;DHT22;17097;50.916;5.344;2022-11-20T04:56:03;5.60;99.90
30280;DHT22;17097;50.916;5.344;2022-11-20T04:58:30;5.70;99.90
30280;DHT22;17097;50.916;5.344;2022-11-20T05:01:23;5.70;99.90
30280;DHT22;17097;50.916;5.344;2022-11-20T05:03:52;5.70;99.90
30280;DHT22;17097;50.916;5.344;2022-11-20T05:06:20;5.90;99.90
30280;DHT22;17097;50.916;5.344;2022-11-20T05:08:46;5.80;99.90
30280;DHT22;17097;50.916;5.344;2022-11-20T05:11:14;5.80;99.90
30280;DHT22;17097;50.916;5.344;2022-11-20T05:13:42;5.90;99.90
30280;DHT22;17097;50.916;5.344;2022-11-20T05:16:13;5.90;99.90
30280;DHT22;17097;50.916;5.344;2022-11-20T05:18:41;6.00;99.90
30280;DHT22;17097;50.916;5.344;2022-11-20T05:21:09;6.20;99.90
30280;DHT22;17097;50.916;5.344;2022-11-20T05:23:35;6.30;99.90
30280;DHT22;17097;50.916;5.344;2022-11-20T05:26:02;6.10;99.90
30280;DHT22;17097;50.916;5.344;2022-11-20T05:28:31;6.10;99.90
30280;DHT22;17097;50.916;5.344;2022-11-20T05:31:09;5.90;99.90
30280;DHT22;17097;50.916;5.344;2022-11-20T05:33:35;6.00;99.90
30280;DHT22;17097;50.916;5.344;2022-11-20T05:36:03;6.10;99.90
30280;DHT22;17097;50.916;5.344;2022-11-20T05:38:28;6.10;99.90
30280;DHT22;17097;50.916;5.344;2022-11-20T05:40:55;6.20;99.90
30280;DHT22;17097;50.916;5.344;2022-11-20T05:43:20;6.10;99.90
30280;DHT22;17097;50.916;5.344;2022-11-20T05:45:55;6.10;99.90
30280;DHT22;17097;50.916;5.344;2022-11-20T05:48:21;6.00;99.90
30280;DHT22;17097;50.916;5.344;2022-11-20T05:50:49;6.00;99.90
30280;DHT22;17097;50.916;5.344;2022-11-20T05:53:15;5.90;99.90
30280;DHT22;17097;50.916;5.344;2022-11-20T05:55:43;5.70;99.90
30280;DHT22;17097;50.916;5.344;2022-11-20T05:58:14;6.10;99.90
30280;DHT22;17097;50.916;5.344;2022-11-20T06:00:40;6.00;99.90
30280;DHT22;17097;50.916;5.344;2022-11-20T06:03:05;6.00;99.90
30280;DHT22;17097;50.916;5.344;2022-11-20T06:05:31;5.90;99.90
30280;DHT22;17097;50.916;5.344;2022-11-20T06:08:00;6.00;99.90
30280;DHT22;17097;50.916;5.344;2022-11-20T06:10:26;6.00;99.90
30280;DHT22;17097;50.916;5.344;2022-11-20T06:12:51;5.90;99.90
30280;DHT22;17097;50.916;5.344;2022-11-20T06:15:17;5.90;99.90
30280;DHT22;17097;50.916;5.344;2022-11-20T06:17:43;6.00;99.90
30280;DHT22;17097;50.916;5.344;2022-11-20T06:20:09;6.00;99.90
30280;DHT22;17097;50.916;5.344;2022-11-20T06:22:35;6.00;99.90
30280;DHT22;17097;50.916;5.344;2022-11-20T06:25:01;6.10;99.90
30280;DHT22;17097;50.916;5.344;2022-11-20T06:27:27;6.20;99.90
30280;DHT22;17097;50.916;5.344;2022-11-20T06:29:53;6.10;99.90
30280;DHT22;17097;50.916;5.344;2022-11-20T06:32:19;6.10;99.90
30280;DHT22;17097;50.916;5.344;2022-11-20T06:34:45;6.20;99.90
30280;DHT22;17097;50.916;5.344;2022-11-20T06:37:10;6.20;99.90
30280;DHT22;17097;50.916;5.344;2022-11-20T06:39:36;6.20;99.90
30280;DHT22;17097;50.916;5.344;2022-11-20T06:42:02;6.40;99.90
30280;DHT22;17097;50.916;5.344;2022-11-20T06:44:28;6.60;99.90
30280;DHT22;17097;50.916;5.344;2022-11-20T06:46:54;6.50;99.90
30280;DHT22;17097;50.916;5.344;2022-11-20T06:49:20;6.60;99.90
30280;DHT22;17097;50.916;5.344;2022-11-20T06:51:45;6.60;99.90
30280;DHT22;17097;50.916;5.344;2022-11-20T06:54:11;6.50;99.90
30280;DHT22;17097;50.916;5.344;2022-11-20T06:56:37;6.50;99.90
30280;DHT22;17097;50.916;5.344;2022-11-20T06:59:07;6.60;99.90
30280;DHT22;17097;50.916;5.344;2022-11-20T07:01:33;6.60;99.90
30280;DHT22;17097;50.916;5.344;2022-11-20T07:04:00;6.70;99.90
30280;DHT22;17097;50.916;5.344;2022-11-20T07:06:25;6.70;99.90
30280;DHT22;17097;50.916;5.344;2022-11-20T07:08:51;6.60;99.90
30280;DHT22;17097;50.916;5.344;2022-11-20T07:11:17;6.50;99.90
30280;DHT22;17097;50.916;5.344;2022-11-20T07:13:43;6.50;99.90
30280;DHT22;17097;50.916;5.344;2022-11-20T07:16:09;6.60;99.90
30280;DHT22;17097;50.916;5.344;2022-11-20T07:18:35;6.60;99.90
30280;DHT22;17097;50.916;5.344;2022-11-20T07:21:03;6.60;99.90
30280;DHT22;17097;50.916;5.344;2022-11-20T07:23:29;6.60;99.90
30280;DHT22;17097;50.916;5.344;2022-11-20T07:25:55;6.50;99.90
30280;DHT22;17097;50.916;5.344;2022-11-20T07:28:21;6.60;99.90
30280;DHT22;17097;50.916;5.344;2022-11-20T07:30:53;6.70;99.90
30280;DHT22;17097;50.916;5.344;2022-11-20T07:33:21;6.60;99.90
30280;DHT22;17097;50.916;5.344;2022-11-20T07:35:47;6.60;99.90
30280;DHT22;17097;50.916;5.344;2022-11-20T07:38:13;6.60;99.90
30280;DHT22;17097;50.916;5.344;2022-11-20T07:40:38;6.60;99.90
30280;DHT22;17097;50.916;5.344;2022-11-20T07:43:04;6.60;99.90
30280;DHT22;17097;50.916;5.344;2022-11-20T07:45:30;6.70;99.90
30280;DHT22;17097;50.916;5.344;2022-11-20T07:47:56;6.70;99.90
30280;DHT22;17097;50.916;5.344;2022-11-20T07:50:22;6.60;99.90
30280;DHT22;17097;50.916;5.344;2022-11-20T07:52:48;6.70;99.90
30280;DHT22;17097;50.916;5.344;2022-11-20T07:55:16;6.70;99.90
30280;DHT22;17097;50.916;5.344;2022-11-20T07:57:42;6.70;99.90
30280;DHT22;17097;50.916;5.344;2022-11-20T08:00:10;6.70;99.90
30280;DHT22;17097;50.916;5.344;2022-11-20T08:02:41;6.70;99.90
30280;DHT22;17097;50.916;5.344;2022-11-20T08:05:09;6.90;99.90
30280;DHT22;17097;50.916;5.344;2022-11-20T08:07:39;6.90;99.90
30280;DHT22;17097;50.916;5.344;2022-11-20T08:10:06;6.90;99.90
30280;DHT22;17097;50.916;5.344;2022-11-20T08:12:33;7.20;99.90
30280;DHT22;17097;50.916;5.344;2022-11-20T08:15:17;7.10;99.90
30280;DHT22;17097;50.916;5.344;2022-11-20T08:17:43;7.10;99.90
30280;DHT22;17097;50.916;5.344;2022-11-20T08:20:09;7.10;99.90
30280;DHT22;17097;50.916;5.344;2022-11-20T08:22:35;7.10;99.90
30280;DHT22;17097;50.916;5.344;2022-11-20T08:25:04;7.00;99.90
30280;DHT22;17097;50.916;5.344;2022-11-20T08:27:31;6.90;99.90
30280;DHT22;17097;50.916;5.344;2022-11-20T08:29:57;6.90;99.90
30280;DHT22;17097;50.916;5.344;2022-11-20T08:32:24;7.00;99.90
30280;DHT22;17097;50.916;5.344;2022-11-20T08:34:49;7.00;99.90
30280;DHT22;17097;50.916;5.344;2022-11-20T08:37:17;7.20;99.90
30280;DHT22;17097;50.916;5.344;2022-11-20T08:39:45;7.20;99.90
30280;DHT22;17097;50.916;5.344;2022-11-20T08:42:12;7.10;99.90
30280;DHT22;17097;50.916;5.344;2022-11-20T08:44:37;7.10;99.90
30280;DHT22;17097;50.916;5.344;2022-11-20T08:47:03;7.10;99.90
30280;DHT22;17097;50.916;5.344;2022-11-20T08:49:29;7.00;99.90
30280;DHT22;17097;50.916;5.344;2022-11-20T08:51:55;7.00;99.90
30280;DHT22;17097;50.916;5.344;2022-11-20T08:54:21;6.90;99.90
30280;DHT22;17097;50.916;5.344;2022-11-20T08:56:50;7.00;99.90
30280;DHT22;17097;50.916;5.344;2022-11-20T08:59:15;7.10;99.90
30280;DHT22;17097;50.916;5.344;2022-11-20T09:01:41;7.20;99.90
30280;DHT22;17097;50.916;5.344;2022-11-20T09:04:07;7.30;99.90
30280;DHT22;17097;50.916;5.344;2022-11-20T09:06:33;7.30;99.90
30280;DHT22;17097;50.916;5.344;2022-11-20T09:08:59;7.40;99.90
30280;DHT22;17097;50.916;5.344;2022-11-20T09:11:26;7.50;99.90
30280;DHT22;17097;50.916;5.344;2022-11-20T09:13:52;7.60;99.90
30280;DHT22;17097;50.916;5.344;2022-11-20T09:16:18;7.70;99.90
30280;DHT22;17097;50.916;5.344;2022-11-20T09:18:43;7.90;99.90
30280;DHT22;17097;50.916;5.344;2022-11-20T09:21:11;7.90;99.90
30280;DHT22;17097;50.916;5.344;2022-11-20T09:23:37;7.80;99.90
30280;DHT22;17097;50.916;5.344;2022-11-20T09:26:10;7.90;99.90
30280;DHT22;17097;50.916;5.344;2022-11-20T09:28:36;7.70;99.90
30280;DHT22;17097;50.916;5.344;2022-11-20T09:31:06;7.90;99.90
30280;DHT22;17097;50.916;5.344;2022-11-20T09:33:32;7.90;99.90
30280;DHT22;17097;50.916;5.344;2022-11-20T09:35:57;7.90;99.90
30280;DHT22;17097;50.916;5.344;2022-11-20T09:38:23;7.90;99.90
30280;DHT22;17097;50.916;5.344;2022-11-20T09:44:01;8.00;99.90
30280;DHT22;17097;50.916;5.344;2022-11-20T09:46:41;8.00;99.90
30280;DHT22;17097;50.916;5.344;2022-11-20T09:55:02;8.10;99.90
30280;DHT22;17097;50.916;5.344;2022-11-20T09:57:39;8.10;99.90
30280;DHT22;17097;50.916;5.344;2022-11-20T10:00:10;8.50;99.90
30280;DHT22;17097;50.916;5.344;2022-11-20T10:03:03;8.70;99.90
30280;DHT22;17097;50.916;5.344;2022-11-20T10:05:42;8.70;99.90
30280;DHT22;17097;50.916;5.344;2022-11-20T10:15:55;8.70;99.90
30280;DHT22;17097;50.916;5.344;2022-11-20T10:18:57;8.70;99.90
30280;DHT22;17097;50.916;5.344;2022-11-20T10:21:46;8.80;99.90
30280;DHT22;17097;50.916;5.344;2022-11-20T10:24:37;8.70;99.90
30280;DHT22;17097;50.916;5.344;2022-11-20T10:30:07;8.90;99.90
30280;DHT22;17097;50.916;5.344;2022-11-20T10:32:41;9.00;99.90
30280;DHT22;17097;50.916;5.344;2022-11-20T10:35:37;8.90;99.90
30280;DHT22;17097;50.916;5.344;2022-11-20T10:38:54;9.00;99.90
30280;DHT22;17097;50.916;5.344;2022-11-20T10:41:00;9.10;99.90
30280;DHT22;17097;50.916;5.344;2022-11-20T10:43:44;9.00;99.90
30280;DHT22;17097;50.916;5.344;2022-11-20T10:46:17;8.80;99.90
30280;DHT22;17097;50.916;5.344;2022-11-20T10:48:48;8.90;99.90
30280;DHT22;17097;50.916;5.344;2022-11-20T10:51:35;8.90;99.90
30280;DHT22;17097;50.916;5.344;2022-11-20T10:56:50;9.10;99.90
30280;DHT22;17097;50.916;5.344;2022-11-20T11:01:44;9.30;99.90
30280;DHT22;17097;50.916;5.344;2022-11-20T11:07:02;9.30;99.90
30280;DHT22;17097;50.916;5.344;2022-11-20T11:09:37;9.50;99.90
30280;DHT22;17097;50.916;5.344;2022-11-20T11:12:08;9.80;99.90
30280;DHT22;17097;50.916;5.344;2022-11-20T11:14:48;9.60;99.90
30280;DHT22;17097;50.916;5.344;2022-11-20T11:17:22;9.60;99.90
30280;DHT22;17097;50.916;5.344;2022-11-20T11:20:06;9.40;99.90
30280;DHT22;17097;50.916;5.344;2022-11-20T11:22:45;9.40;99.90
30280;DHT22;17097;50.916;5.344;2022-11-20T11:25:30;9.80;99.90
30280;DHT22;17097;50.916;5.344;2022-11-20T11:27:58;9.90;99.90
30280;DHT22;17097;50.916;5.344;2022-11-20T11:30:26;10.00;99.90
30280;DHT22;17097;50.916;5.344;2022-11-20T11:33:09;10.10;99.90
30280;DHT22;17097;50.916;5.344;2022-11-20T11:35:47;10.10;99.90
30280;DHT22;17097;50.916;5.344;2022-11-20T11:38:22;10.10;99.90
30280;DHT22;17097;50.916;5.344;2022-11-20T11:40:48;10.20;99.90
30280;DHT22;17097;50.916;5.344;2022-11-20T11:43:21;10.10;99.90
30280;DHT22;17097;50.916;5.344;2022-11-20T11:49:18;10.20;99.90
30280;DHT22;17097;50.916;5.344;2022-11-20T11:54:53;10.60;99.90
30280;DHT22;17097;50.916;5.344;2022-11-20T11:57:29;10.70;99.90
30280;DHT22;17097;50.916;5.344;2022-11-20T12:00:11;10.90;99.90
30280;DHT22;17097;50.916;5.344;2022-11-20T12:07:48;11.00;99.90
30280;DHT22;17097;50.916;5.344;2022-11-20T12:15:48;11.30;99.90
30280;DHT22;17097;50.916;5.344;2022-11-20T12:18:20;11.30;99.90
30280;DHT22;17097;50.916;5.344;2022-11-20T12:23:28;11.10;99.90
30280;DHT22;17097;50.916;5.344;2022-11-20T12:26:00;11.10;99.90
30280;DHT22;17097;50.916;5.344;2022-11-20T12:28:37;11.10;99.90
30280;DHT22;17097;50.916;5.344;2022-11-20T12:34:24;11.30;99.90
30280;DHT22;17097;50.916;5.344;2022-11-20T12:37:14;11.40;99.90
30280;DHT22;17097;50.916;5.344;2022-11-20T12:39:43;11.20;99.90
30280;DHT22;17097;50.916;5.344;2022-11-20T12:54:36;11.10;99.90
30280;DHT22;17097;50.916;5.344;2022-11-20T13:03:10;11.00;99.90
30280;DHT22;17097;50.916;5.344;2022-11-20T13:06:16;11.00;99.90
30280;DHT22;17097;50.916;5.344;2022-11-20T13:09:03;11.00;99.90
30280;DHT22;17097;50.916;5.344;2022-11-20T13:11:34;11.00;99.90
30280;DHT22;17097;50.916;5.344;2022-11-20T13:14:29;10.80;99.90
30280;DHT22;17097;50.916;5.344;2022-11-20T13:17:27;10.60;99.90
30280;DHT22;17097;50.916;5.344;2022-11-20T13:19:57;10.50;99.90
30280;DHT22;17097;50.916;5.344;2022-11-20T13:22:27;10.50;99.90
30280;DHT22;17097;50.916;5.344;2022-11-20T13:24:56;10.40;99.90
30280;DHT22;17097;50.916;5.344;2022-11-20T13:27:22;10.50;99.90
30280;DHT22;17097;50.916;5.344;2022-11-20T13:30:14;10.50;99.90
30280;DHT22;17097;50.916;5.344;2022-11-20T13:33:08;10.30;99.90
30280;DHT22;17097;50.916;5.344;2022-11-20T13:35:42;10.20;99.90
30280;DHT22;17097;50.916;5.344;2022-11-20T13:38:14;10.30;99.90
30280;DHT22;17097;50.916;5.344;2022-11-20T13:40:59;10.30;99.90
30280;DHT22;17097;50.916;5.344;2022-11-20T13:43:48;10.20;99.90
30280;DHT22;17097;50.916;5.344;2022-11-20T13:46:14;10.20;99.90
30280;DHT22;17097;50.916;5.344;2022-11-20T13:48:48;10.10;99.90
30280;DHT22;17097;50.916;5.344;2022-11-20T14:02:01;10.20;99.90
30280;DHT22;17097;50.916;5.344;2022-11-20T14:04:33;10.30;99.90
30280;DHT22;17097;50.916;5.344;2022-11-20T14:07:01;10.20;99.90
30280;DHT22;17097;50.916;5.344;2022-11-20T14:09:32;10.20;99.90
30280;DHT22;17097;50.916;5.344;2022-11-20T14:12:03;10.30;99.90
30280;DHT22;17097;50.916;5.344;2022-11-20T14:14:30;10.20;99.90
30280;DHT22;17097;50.916;5.344;2022-11-20T14:19:50;10.30;99.90
30280;DHT22;17097;50.916;5.344;2022-11-20T14:22:24;10.30;99.90
30280;DHT22;17097;50.916;5.344;2022-11-20T14:25:23;10.10;99.90
30280;DHT22;17097;50.916;5.344;2022-11-20T14:28:02;10.10;99.90
30280;DHT22;17097;50.916;5.344;2022-11-20T14:30:47;9.90;99.90
30280;DHT22;17097;50.916;5.344;2022-11-20T14:33:16;9.90;99.90
30280;DHT22;17097;50.916;5.344;2022-11-20T14:35:47;9.80;99.90
30280;DHT22;17097;50.916;5.344;2022-11-20T14:38:19;9.70;99.90
30280;DHT22;17097;50.916;5.344;2022-11-20T14:40:46;9.70;99.90
30280;DHT22;17097;50.916;5.344;2022-11-20T14:43:22;9.50;99.90
30280;DHT22;17097;50.916;5.344;2022-11-20T14:46:01;9.30;99.90
30280;DHT22;17097;50.916;5.344;2022-11-20T14:48:31;9.30;99.90
30280;DHT22;17097;50.916;5.344;2022-11-20T14:50:57;9.40;99.90
30280;DHT22;17097;50.916;5.344;2022-11-20T14:53:26;9.30;99.90
30280;DHT22;17097;50.916;5.344;2022-11-20T14:56:00;9.60;99.90
30280;DHT22;17097;50.916;5.344;2022-11-20T14:58:31;9.60;99.90
30280;DHT22;17097;50.916;5.344;2022-11-20T15:01:06;9.50;99.90
30280;DHT22;17097;50.916;5.344;2022-11-20T15:03:37;9.30;99.90
30280;DHT22;17097;50.916;5.344;2022-11-20T15:06:06;9.30;99.90
30280;DHT22;17097;50.916;5.344;2022-11-20T15:08:34;9.20;99.90
30280;DHT22;17097;50.916;5.344;2022-11-20T15:11:00;9.30;99.90
30280;DHT22;17097;50.916;5.344;2022-11-20T15:13:36;9.40;99.90
30280;DHT22;17097;50.916;5.344;2022-11-20T15:16:03;9.60;99.90
30280;DHT22;17097;50.916;5.344;2022-11-20T15:18:37;9.30;99.90
30280;DHT22;17097;50.916;5.344;2022-11-20T15:21:13;9.20;99.90
30280;DHT22;17097;50.916;5.344;2022-11-20T15:23:40;9.30;99.90
30280;DHT22;17097;50.916;5.344;2022-11-20T15:26:06;9.30;99.90
30280;DHT22;17097;50.916;5.344;2022-11-20T15:28:34;9.40;99.90
30280;DHT22;17097;50.916;5.344;2022-11-20T15:31:04;9.50;99.90
30280;DHT22;17097;50.916;5.344;2022-11-20T15:33:31;9.20;99.90
30280;DHT22;17097;50.916;5.344;2022-11-20T15:35:57;9.10;99.90
30280;DHT22;17097;50.916;5.344;2022-11-20T15:38:25;9.00;99.90
30280;DHT22;17097;50.916;5.344;2022-11-20T15:40:51;9.00;99.90
30280;DHT22;17097;50.916;5.344;2022-11-20T15:43:17;8.90;99.90
30280;DHT22;17097;50.916;5.344;2022-11-20T15:45:52;8.90;99.90
30280;DHT22;17097;50.916;5.344;2022-11-20T15:48:24;8.90;99.90
30280;DHT22;17097;50.916;5.344;2022-11-20T15:51:06;8.80;99.90
30280;DHT22;17097;50.916;5.344;2022-11-20T15:53:32;8.90;99.90
30280;DHT22;17097;50.916;5.344;2022-11-20T15:56:01;9.00;99.90
30280;DHT22;17097;50.916;5.344;2022-11-20T15:58:27;8.90;99.90
30280;DHT22;17097;50.916;5.344;2022-11-20T16:00:53;9.00;99.90
30280;DHT22;17097;50.916;5.344;2022-11-20T16:03:19;9.00;99.90
30280;DHT22;17097;50.916;5.344;2022-11-20T16:05:45;8.90;99.90
30280;DHT22;17097;50.916;5.344;2022-11-20T16:08:11;9.00;99.90
30280;DHT22;17097;50.916;5.344;2022-11-20T16:10:37;9.20;99.90
30280;DHT22;17097;50.916;5.344;2022-11-20T16:13:03;9.20;99.90
30280;DHT22;17097;50.916;5.344;2022-11-20T16:15:52;9.20;99.90
30280;DHT22;17097;50.916;5.344;2022-11-20T16:18:21;9.20;99.90
30280;DHT22;17097;50.916;5.344;2022-11-20T16:20:52;9.20;99.90
30280;DHT22;17097;50.916;5.344;2022-11-20T16:23:19;9.30;99.90
30280;DHT22;17097;50.916;5.344;2022-11-20T16:25:45;9.40;99.90
30280;DHT22;17097;50.916;5.344;2022-11-20T16:28:11;9.40;99.90
30280;DHT22;17097;50.916;5.344;2022-11-20T16:30:37;9.30;99.90
30280;DHT22;17097;50.916;5.344;2022-11-20T16:33:03;9.40;99.90
30280;DHT22;17097;50.916;5.344;2022-11-20T16:35:31;9.40;99.90
30280;DHT22;17097;50.916;5.344;2022-11-20T16:37:57;9.40;99.90
30280;DHT22;17097;50.916;5.344;2022-11-20T16:40:24;9.40;99.90
30280;DHT22;17097;50.916;5.344;2022-11-20T16:42:50;9.50;99.90
30280;DHT22;17097;50.916;5.344;2022-11-20T16:45:16;9.50;99.90
30280;DHT22;17097;50.916;5.344;2022-11-20T16:47:43;9.50;99.90
30280;DHT22;17097;50.916;5.344;2022-11-20T16:50:09;9.50;99.90
30280;DHT22;17097;50.916;5.344;2022-11-20T16:52:35;9.60;99.90
30280;DHT22;17097;50.916;5.344;2022-11-20T16:55:01;9.50;99.90
30280;DHT22;17097;50.916;5.344;2022-11-20T16:57:30;9.60;99.90
30280;DHT22;17097;50.916;5.344;2022-11-20T16:59:58;9.60;99.90
30280;DHT22;17097;50.916;5.344;2022-11-20T17:02:23;9.70;99.90
30280;DHT22;17097;50.916;5.344;2022-11-20T17:04:52;9.70;99.90
30280;DHT22;17097;50.916;5.344;2022-11-20T17:07:18;9.90;99.90
30280;DHT22;17097;50.916;5.344;2022-11-20T17:09:44;9.90;99.90
30280;DHT22;17097;50.916;5.344;2022-11-20T17:12:09;9.80;99.90
30280;DHT22;17097;50.916;5.344;2022-11-20T17:14:35;9.60;99.90
30280;DHT22;17097;50.916;5.344;2022-11-20T17:17:02;9.60;99.90
30280;DHT22;17097;50.916;5.344;2022-11-20T17:19:30;9.80;99.90
30280;DHT22;17097;50.916;5.344;2022-11-20T17:21:55;9.70;99.90
30280;DHT22;17097;50.916;5.344;2022-11-20T17:24:21;9.80;99.90
30280;DHT22;17097;50.916;5.344;2022-11-20T17:26:48;9.70;99.90
30280;DHT22;17097;50.916;5.344;2022-11-20T17:29:16;9.50;99.90
30280;DHT22;17097;50.916;5.344;2022-11-20T17:31:46;9.50;99.90
30280;DHT22;17097;50.916;5.344;2022-11-20T17:34:14;9.50;99.90
30280;DHT22;17097;50.916;5.344;2022-11-20T17:36:41;9.40;99.90
30280;DHT22;17097;50.916;5.344;2022-11-20T17:39:18;9.40;99.90